Postojna, Slovenia
Current Conditions -  °F | °C
As of 8:55 PM on Monday 22 Dec 2014 (Local Time) from LIVT Reporting Station
Broken Clouds Broken Clouds  
Wind Chill: 48°   Ceiling: 2500
Heat Index: 48°   Visibility: 6mi
Dew Point: 43°   Wind: 2mph
Humidity: 82%   Direction: 70°ENE
Pressure: 30.36"   Gusts: NA
Location:  45.78°N, 14.22°E
Report Text: LIVT 221955Z 07002KT 9999 SCT015 BKN025 09/06 Q1028 RMK OVC QUK / QUL / VIS MAR 12 KM VIS MIN 9999
Loading
Personal Weather Stations






























Interactive Weather Map New forecast layout! Learn more

10-Day Weather Forecast

Advertisements
Track Severe Weather on mobile